createdAt,value
2023-02-16T00:06:59.576Z,254.20
2023-02-16T00:12:21.601Z,263.20
2023-02-16T00:17:24.364Z,229.70
2023-02-16T00:22:27.235Z,405.98
2023-02-16T00:27:31.301Z,415.40
2023-02-16T00:32:34.051Z,320.15
2023-02-16T00:37:36.841Z,314.95
2023-02-16T00:42:42.128Z,236.63
2023-02-16T00:47:47.733Z,357.08
2023-02-16T00:52:52.729Z,253.75
2023-02-16T00:58:03.684Z,390.58
2023-02-16T01:03:14.878Z,235.57
2023-02-16T01:08:35.787Z,251.85
2023-02-16T01:13:47.042Z,248.73
2023-02-16T01:18:50.770Z,285.42
2023-02-16T01:23:55.424Z,255.32
2023-02-16T01:28:59.644Z,253.25
2023-02-16T01:34:02.471Z,269.17
2023-02-16T01:39:07.683Z,262.42
2023-02-16T01:44:15.398Z,375.02
2023-02-16T01:49:21.031Z,340.13
2023-02-16T01:54:33.776Z,300.92
2023-02-16T01:59:42.860Z,278.27
2023-02-16T02:05:10.194Z,324.73
2023-02-16T02:10:20.811Z,211.48
2023-02-16T02:15:30.685Z,236.02
2023-02-16T02:21:11.458Z,324.95
2023-02-16T02:26:56.652Z,209.63
2023-02-16T02:32:09.621Z,329.45
2023-02-16T02:37:22.997Z,369.77
2023-02-16T02:42:36.520Z,325.33
2023-02-16T02:47:41.389Z,315.73
2023-02-16T02:52:44.763Z,418.50
2023-02-16T02:58:08.412Z,387.33
2023-02-16T03:03:17.875Z,348.48
2023-02-16T03:08:24.720Z,341.70
2023-02-16T03:18:54.569Z,238.85
2023-02-16T03:24:16.343Z,302.63
2023-02-16T03:29:22.744Z,216.55
2023-02-16T03:34:26.040Z,333.88
2023-02-16T03:39:30.314Z,232.68
2023-02-16T03:44:34.762Z,195.38
2023-02-16T03:49:37.544Z,247.30
2023-02-16T03:54:40.355Z,219.80
2023-02-16T03:59:44.477Z,288.42
2023-02-16T04:04:47.834Z,215.85
2023-02-16T04:09:50.724Z,220.15
2023-02-16T04:14:54.777Z,239.70
2023-02-16T04:19:57.510Z,143.65
2023-02-16T04:25:00.240Z,193.63
2023-02-16T04:30:05.547Z,180.45
2023-02-16T04:35:09.187Z,207.63
2023-02-16T04:40:13.628Z,333.92
2023-02-16T04:45:17.940Z,194.75
2023-02-16T04:50:21.041Z,209.60
2023-02-16T04:55:23.717Z,239.48
2023-02-16T05:00:28.087Z,180.85
2023-02-16T05:05:31.573Z,170.30
2023-02-16T05:10:34.471Z,200.50
2023-02-16T05:15:38.880Z,173.23
2023-02-16T05:20:59.254Z,249.63
2023-02-16T05:26:02.167Z,194.45
2023-02-16T05:31:07.057Z,204.60
2023-02-16T05:36:10.631Z,192.82
2023-02-16T05:41:23.264Z,172.75
2023-02-16T05:46:29.517Z,141.82
2023-02-16T05:51:32.659Z,254.38
2023-02-16T05:56:35.574Z,235.70
2023-02-16T06:01:40.894Z,187.20
2023-02-16T06:06:45.061Z,203.07
2023-02-16T06:11:48.005Z,244.45
2023-02-16T06:16:52.490Z,249.40
2023-02-16T06:21:55.310Z,229.05
2023-02-16T06:26:58.089Z,134.23
2023-02-16T06:32:02.925Z,172.55
2023-02-16T06:37:05.792Z,178.35
2023-02-16T06:42:08.952Z,147.07
2023-02-16T06:47:14.400Z,214.68
2023-02-16T06:52:18.424Z,138.27
2023-02-16T06:57:21.369Z,224.77
2023-02-16T07:02:25.625Z,253.95
2023-02-16T07:07:30.905Z,261.23
2023-02-16T07:12:34.567Z,135.75
2023-02-16T07:17:38.681Z,175.00
2023-02-16T07:22:41.528Z,169.23
2023-02-16T07:27:44.318Z,231.57
2023-02-16T07:32:48.679Z,138.68
2023-02-16T07:37:54.395Z,218.07
2023-02-16T07:43:01.024Z,98.28
2023-02-16T07:48:06.968Z,127.63
2023-02-16T07:53:12.913Z,303.95
2023-02-16T07:58:27.213Z,271.77
2023-02-16T08:03:31.900Z,159.82
2023-02-16T08:08:36.382Z,214.68
2023-02-16T08:13:39.191Z,282.52
2023-02-16T08:18:43.627Z,261.95
2023-02-16T08:23:54.450Z,236.03
2023-02-16T08:29:00.110Z,192.38
2023-02-16T08:34:05.855Z,156.77
2023-02-16T08:39:12.366Z,138.80
2023-02-16T08:44:17.014Z,148.20
2023-02-16T08:49:23.989Z,181.13
2023-02-16T08:54:30.310Z,195.65
2023-02-16T08:59:34.502Z,139.57
2023-02-16T09:04:38.863Z,109.90
2023-02-16T09:09:42.777Z,76.28
2023-02-16T09:14:45.605Z,154.98
2023-02-16T09:19:49.894Z,68.13
2023-02-16T09:24:52.924Z,89.28
2023-02-16T09:29:58.618Z,57.88
2023-02-16T09:35:02.948Z,116.28
2023-02-16T09:40:07.971Z,48.72
2023-02-16T09:45:14.629Z,52.80
2023-02-16T09:50:38.344Z,70.80
2023-02-16T09:55:54.618Z,63.03
2023-02-16T10:01:00.848Z,68.47
2023-02-16T10:06:18.545Z,60.37
2023-02-16T10:11:41.591Z,60.95
2023-02-16T10:16:52.056Z,57.45
2023-02-16T10:22:02.021Z,67.47
2023-02-16T10:27:11.006Z,74.97
2023-02-16T10:32:21.114Z,171.05
2023-02-16T10:37:49.157Z,63.13
2023-02-16T10:42:58.940Z,58.17
2023-02-16T10:48:05.808Z,60.05
2023-02-16T10:53:16.809Z,50.90
2023-02-16T10:58:23.281Z,49.45
2023-02-16T11:03:32.357Z,69.15
2023-02-16T11:08:49.070Z,70.40
2023-02-16T11:13:59.569Z,56.85
2023-02-16T11:19:07.145Z,53.58
2023-02-16T11:24:14.219Z,55.42
2023-02-16T11:34:30.817Z,50.03
2023-02-16T11:39:38.642Z,55.10
2023-02-16T11:44:46.528Z,55.03
2023-02-16T11:49:51.750Z,48.28
2023-02-16T11:54:57.954Z,46.63
2023-02-16T12:00:05.514Z,46.88
2023-02-16T12:05:33.403Z,47.40
2023-02-16T12:10:44.078Z,54.22
2023-02-16T12:15:52.157Z,51.70
2023-02-16T12:21:01.530Z,52.70
2023-02-16T12:26:21.507Z,49.20
2023-02-16T12:31:34.397Z,146.63
2023-02-16T12:36:54.282Z,48.00
2023-02-16T12:42:15.518Z,44.25
2023-02-16T12:47:24.150Z,43.75
2023-02-16T12:52:36.437Z,45.13
2023-02-16T12:57:48.313Z,52.47
2023-02-16T13:02:54.919Z,45.35
2023-02-16T13:08:03.776Z,47.57
2023-02-16T13:13:16.190Z,50.97
2023-02-16T13:18:23.013Z,49.67
2023-02-16T13:23:49.183Z,45.78
2023-02-16T13:29:12.888Z,65.25
2023-02-16T13:34:36.229Z,50.75
2023-02-16T13:40:02.464Z,46.33
2023-02-16T13:45:15.744Z,42.38
2023-02-16T13:50:34.242Z,45.63
2023-02-16T13:55:39.953Z,46.05
2023-02-16T14:00:47.946Z,46.70
2023-02-16T14:05:53.329Z,50.83
2023-02-16T14:11:05.247Z,47.60
2023-02-16T14:16:13.364Z,44.95
2023-02-16T14:21:33.577Z,50.95
2023-02-16T14:26:52.597Z,50.60
2023-02-16T14:32:01.996Z,58.92
2023-02-16T14:37:34.851Z,53.08
2023-02-16T14:42:39.630Z,59.13
2023-02-16T14:47:56.665Z,59.35
2023-02-16T14:53:50.342Z,62.92
2023-02-16T14:58:58.948Z,57.45
2023-02-16T15:04:03.085Z,57.67
2023-02-16T15:09:13.930Z,58.22
2023-02-16T15:14:17.017Z,63.78
2023-02-16T15:19:28.790Z,59.67
2023-02-16T15:24:31.611Z,67.13
2023-02-16T15:29:34.563Z,64.90
2023-02-16T15:34:39.380Z,58.25
2023-02-16T15:39:53.525Z,58.78
2023-02-16T15:45:26.890Z,60.67
2023-02-16T15:50:31.785Z,53.15
2023-02-16T15:55:34.694Z,35.67
2023-02-16T16:00:39.868Z,38.10
2023-02-16T16:05:56.668Z,49.13
2023-02-16T16:11:01.306Z,43.50
2023-02-16T16:16:07.010Z,42.88
2023-02-16T16:21:34.265Z,40.35
2023-02-16T16:31:55.471Z,38.87
2023-02-16T16:37:02.568Z,45.00
2023-02-16T16:42:23.611Z,46.75
2023-02-16T16:47:29.840Z,55.00
2023-02-16T16:52:40.579Z,58.30
2023-02-16T16:57:43.716Z,48.83
2023-02-16T17:02:46.832Z,49.67
2023-02-16T17:07:51.899Z,56.85
2023-02-16T17:12:57.352Z,51.13
2023-02-16T17:18:01.509Z,38.75
2023-02-16T17:23:06.165Z,43.15
2023-02-16T17:28:10.303Z,50.25
2023-02-16T17:33:13.790Z,63.13
2023-02-16T17:38:21.794Z,57.80
2023-02-16T17:43:26.431Z,37.30
2023-02-16T17:48:30.974Z,49.78
2023-02-16T17:53:35.354Z,47.58
2023-02-16T17:58:38.593Z,48.15
2023-02-16T18:03:41.552Z,43.20
2023-02-16T18:08:45.806Z,46.92
2023-02-16T18:13:48.647Z,41.10
2023-02-16T18:18:51.407Z,65.53
2023-02-16T18:23:55.619Z,58.08
2023-02-16T18:28:58.544Z,48.10
2023-02-16T18:34:01.384Z,41.33
2023-02-16T18:39:07.297Z,39.00
2023-02-16T18:44:10.783Z,38.00
2023-02-16T18:49:14.029Z,31.42
2023-02-16T18:54:18.180Z,36.63
2023-02-16T18:59:21.065Z,30.95
2023-02-16T19:04:24.384Z,36.10
2023-02-16T19:09:28.596Z,31.17
2023-02-16T19:14:31.433Z,56.33
2023-02-16T19:19:34.721Z,30.02
2023-02-16T19:24:38.936Z,32.78
2023-02-16T19:29:42.239Z,32.00
2023-02-16T19:34:45.052Z,38.20
2023-02-16T19:39:49.151Z,40.30
2023-02-16T19:44:52.040Z,32.13
2023-02-16T19:49:54.885Z,29.23
2023-02-16T19:54:59.044Z,34.85
2023-02-16T20:00:03.411Z,28.17
2023-02-16T20:05:14.674Z,38.05
2023-02-16T20:10:19.101Z,23.63
2023-02-16T20:15:21.988Z,44.50
2023-02-16T20:20:24.992Z,24.70
2023-02-16T20:25:29.431Z,53.83
2023-02-16T20:30:32.212Z,29.92
2023-02-16T20:35:35.078Z,32.65
2023-02-16T20:40:39.459Z,32.45
2023-02-16T20:45:43.079Z,32.22
2023-02-16T20:50:46.085Z,25.38
2023-02-16T20:55:50.371Z,34.83
2023-02-16T21:00:53.211Z,34.72
2023-02-16T21:05:56.775Z,31.00
2023-02-16T21:11:00.882Z,32.67
2023-02-16T21:16:04.198Z,31.98
2023-02-16T21:21:07.314Z,28.33
2023-02-16T21:26:11.942Z,31.55
2023-02-16T21:31:17.351Z,34.63
2023-02-16T21:36:22.229Z,35.28
2023-02-16T21:41:29.259Z,39.70
2023-02-16T21:46:34.710Z,43.10
2023-02-16T21:51:39.026Z,37.75
2023-02-16T21:56:44.981Z,38.55
2023-02-16T22:01:50.924Z,34.33
2023-02-16T22:06:54.635Z,41.17
2023-02-16T22:11:58.876Z,42.13
2023-02-16T22:17:02.086Z,35.95
2023-02-16T22:22:04.895Z,33.42
2023-02-16T22:27:09.316Z,37.53
2023-02-16T22:32:12.794Z,35.20
2023-02-16T22:37:15.992Z,42.75
2023-02-16T22:42:20.099Z,29.33
2023-02-16T22:47:22.959Z,34.35
2023-02-16T22:52:25.749Z,33.58
2023-02-16T22:57:29.924Z,33.30
2023-02-16T23:02:33.143Z,29.73
2023-02-16T23:07:36.383Z,31.70
2023-02-16T23:12:40.566Z,39.92
2023-02-16T23:17:43.372Z,28.98
2023-02-16T23:22:46.074Z,34.80
2023-02-16T23:27:52.835Z,28.10
2023-02-16T23:32:55.630Z,46.72
2023-02-16T23:37:59.912Z,35.65
2023-02-16T23:43:04.078Z,36.15
2023-02-16T23:48:07.094Z,30.08
2023-02-16T23:53:09.933Z,30.55
2023-02-16T23:58:14.003Z,35.92
